GLD1028 SBBV-SBUA
Flight info
| Callsign | GLD1028 |
|---|---|
| Flight time | N/A |
| Altitude | 26000 |
| Route | DCT ARVOT DCT DABOR DCT |
| Aircraft | PC12/L-SDFGIRY/S |
Departure
| Time | 2026-04-24 13:54 |
|---|---|
| Airport | Atlas Brasil Cantanhede International Airport (SBBV) |
Arrival
| Time | N/A |
|---|---|
| Airport | São Gabriel da Cachoeira Airport (SBUA) |
| Time | Latitude | Longitude | Altitude | Speed | Heading |
|---|---|---|---|---|---|
| 2026-04-24 13:04 | 2.84458 | -60.68875 | 276 ft | 0 kts | 153° |
| 2026-04-24 13:46 | 2.84457 | -60.68874 | 276 ft | 1 kts | 143° |
| 2026-04-24 13:46 | 2.84457 | -60.68864 | 276 ft | 2 kts | 45° |
| 2026-04-24 13:47 | 2.84469 | -60.68864 | 276 ft | 4 kts | 331° |
| 2026-04-24 13:47 | 2.84509 | -60.68892 | 276 ft | 9 kts | 288° |
| 2026-04-24 13:47 | 2.84488 | -60.68954 | 276 ft | 11 kts | 242° |
| 2026-04-24 13:47 | 2.84453 | -60.69023 | 276 ft | 12 kts | 243° |
| 2026-04-24 13:48 | 2.84412 | -60.69102 | 276 ft | 13 kts | 242° |
| 2026-04-24 13:48 | 2.84368 | -60.69189 | 276 ft | 14 kts | 243° |
| 2026-04-24 13:48 | 2.84321 | -60.69281 | 276 ft | 15 kts | 243° |
| 2026-04-24 13:48 | 2.84272 | -60.69377 | 275 ft | 16 kts | 242° |
| 2026-04-24 13:49 | 2.84220 | -60.69477 | 275 ft | 17 kts | 244° |
| 2026-04-24 13:49 | 2.84168 | -60.69578 | 275 ft | 17 kts | 242° |
| 2026-04-24 13:49 | 2.84128 | -60.69658 | 275 ft | 10 kts | 244° |
| 2026-04-24 13:49 | 2.84093 | -60.69726 | 275 ft | 12 kts | 241° |
| 2026-04-24 13:50 | 2.84053 | -60.69801 | 275 ft | 13 kts | 241° |
| 2026-04-24 13:50 | 2.84013 | -60.69884 | 276 ft | 14 kts | 243° |
| 2026-04-24 13:50 | 2.83967 | -60.69971 | 276 ft | 14 kts | 243° |
| 2026-04-24 13:50 | 2.84002 | -60.70033 | 276 ft | 9 kts | 333° |
| 2026-04-24 13:51 | 2.84005 | -60.70034 | 276 ft | 0 kts | 333° |
| 2026-04-24 13:51 | 2.84028 | -60.70045 | 276 ft | 10 kts | 333° |
| 2026-04-24 13:52 | 2.84094 | -60.70069 | 277 ft | 6 kts | 95° |
| 2026-04-24 13:52 | 2.84099 | -60.70045 | 277 ft | 0 kts | 61° |
| 2026-04-24 13:52 | 2.84150 | -60.69944 | 276 ft | 41 kts | 63° |
| 2026-04-24 13:53 | 2.84352 | -60.69545 | 273 ft | 83 kts | 63° |
| 2026-04-24 13:53 | 2.84640 | -60.68991 | 407 ft | 93 kts | 65° |
| 2026-04-24 13:53 | 2.84971 | -60.68379 | 480 ft | 109 kts | 59° |
| 2026-04-24 13:53 | 2.85411 | -60.67683 | 575 ft | 125 kts | 62° |
| 2026-04-24 13:54 | 2.85700 | -60.66822 | 658 ft | 138 kts | 83° |
| 2026-04-24 13:54 | 2.85837 | -60.65828 | 820 ft | 147 kts | 86° |
| 2026-04-24 13:54 | 2.85884 | -60.64821 | 1114 ft | 144 kts | 90° |
| 2026-04-24 13:54 | 2.85883 | -60.63802 | 1339 ft | 143 kts | 92° |
| 2026-04-24 13:55 | 2.85835 | -60.62907 | 1722 ft | 125 kts | 95° |
| 2026-04-24 13:55 | 2.85695 | -60.61928 | 1549 ft | 138 kts | 95° |
| 2026-04-24 13:55 | 2.85687 | -60.61002 | 1616 ft | 132 kts | 85° |
| 2026-04-24 13:55 | 2.85791 | -60.60122 | 1788 ft | 128 kts | 84° |
| 2026-04-24 13:56 | 2.85788 | -60.59233 | 1836 ft | 129 kts | 99° |
| 2026-04-24 13:56 | 2.85365 | -60.58409 | 1749 ft | 143 kts | 136° |
| 2026-04-24 13:56 | 2.84401 | -60.58234 | 1869 ft | 159 kts | 202° |
| 2026-04-24 13:56 | 2.83977 | -60.59253 | 1654 ft | 191 kts | 296° |